createdAt,value
2022-12-25T00:01:19.175Z,13.90
2022-12-25T00:03:46.718Z,13.89
2022-12-25T00:06:13.897Z,13.87
2022-12-25T00:08:41.121Z,13.89
2022-12-25T00:11:12.622Z,13.89
2022-12-25T00:13:40.344Z,13.81
2022-12-25T00:16:15.167Z,13.76
2022-12-25T00:18:42.325Z,13.75
2022-12-25T00:21:10.759Z,13.74
2022-12-25T00:23:37.786Z,13.70
2022-12-25T00:26:07.390Z,13.73
2022-12-25T00:28:36.140Z,13.74
2022-12-25T00:31:11.963Z,13.74
2022-12-25T00:33:40.942Z,13.74
2022-12-25T00:36:10.117Z,13.76
2022-12-25T00:38:39.009Z,13.76
2022-12-25T00:41:15.192Z,13.77
2022-12-25T00:43:42.513Z,13.76
2022-12-25T00:46:11.676Z,13.77
2022-12-25T00:48:39.068Z,13.79
2022-12-25T00:51:10.924Z,13.75
2022-12-25T00:53:38.166Z,13.71
2022-12-25T00:56:06.891Z,13.71
2022-12-25T00:58:35.260Z,13.71
2022-12-25T01:01:03.404Z,13.71
2022-12-25T01:03:30.636Z,13.67
2022-12-25T01:06:08.627Z,13.70
2022-12-25T01:08:38.146Z,13.69
2022-12-25T01:11:07.464Z,13.66
2022-12-25T01:13:37.182Z,13.65
2022-12-25T01:16:08.939Z,13.73
2022-12-25T01:18:36.557Z,13.70
2022-12-25T01:21:12.253Z,13.65
2022-12-25T01:23:39.354Z,13.67
2022-12-25T01:26:08.140Z,13.70
2022-12-25T01:28:36.285Z,13.69
2022-12-25T01:31:04.893Z,13.65
2022-12-25T01:33:32.132Z,13.62
2022-12-25T01:35:59.467Z,13.61
2022-12-25T01:38:26.504Z,13.66
2022-12-25T01:40:53.577Z,13.67
2022-12-25T01:43:31.823Z,13.63
2022-12-25T01:45:59.017Z,13.57
2022-12-25T01:48:30.713Z,13.51
2022-12-25T01:51:03.490Z,13.51
2022-12-25T01:53:31.044Z,13.47
2022-12-25T01:56:03.842Z,13.46
2022-12-25T01:58:32.082Z,13.49
2022-12-25T02:00:59.840Z,13.47
2022-12-25T02:03:26.996Z,13.48
2022-12-25T02:05:54.398Z,13.48
2022-12-25T02:08:22.409Z,13.45
2022-12-25T02:10:49.607Z,13.48
2022-12-25T02:13:19.550Z,13.46
2022-12-25T02:16:01.406Z,13.42
2022-12-25T02:18:46.782Z,13.43
2022-12-25T02:21:37.590Z,13.43
2022-12-25T02:24:32.295Z,13.40
2022-12-25T02:27:14.650Z,13.35
2022-12-25T02:29:50.942Z,13.30
2022-12-25T02:32:30.371Z,13.34
2022-12-25T02:34:57.439Z,13.35
2022-12-25T02:37:40.911Z,13.34
2022-12-25T02:40:45.699Z,13.34
2022-12-25T02:43:36.892Z,13.40
2022-12-25T02:46:27.509Z,13.41
2022-12-25T02:49:19.875Z,13.41
2022-12-25T02:52:17.367Z,13.36
2022-12-25T02:55:07.560Z,13.25
2022-12-25T02:57:58.277Z,13.21
2022-12-25T03:00:44.488Z,13.17
2022-12-25T03:03:33.426Z,13.12
2022-12-25T03:06:22.455Z,13.11
2022-12-25T03:08:54.952Z,13.15
2022-12-25T03:11:31.254Z,13.15
2022-12-25T03:14:23.596Z,13.14
2022-12-25T03:16:54.370Z,13.11
2022-12-25T03:19:45.052Z,13.11
2022-12-25T03:22:58.072Z,13.04
2022-12-25T03:25:43.870Z,13.00
2022-12-25T03:28:11.010Z,12.93
2022-12-25T03:31:08.914Z,12.88
2022-12-25T03:34:23.454Z,12.82
2022-12-25T03:37:17.648Z,12.78
2022-12-25T03:40:23.173Z,12.75
2022-12-25T03:43:17.778Z,12.74
2022-12-25T03:46:11.033Z,12.66
2022-12-25T03:49:00.543Z,12.70
2022-12-25T03:51:52.758Z,12.64
2022-12-25T03:54:43.939Z,12.63
2022-12-25T03:57:31.080Z,12.59
2022-12-25T04:00:16.915Z,12.58
2022-12-25T04:03:02.345Z,12.61
2022-12-25T04:05:47.964Z,12.61
2022-12-25T04:08:33.677Z,12.57
2022-12-25T04:11:19.330Z,12.57
2022-12-25T04:14:06.574Z,12.54
2022-12-25T04:16:52.233Z,12.59
2022-12-25T04:19:38.060Z,12.56
2022-12-25T04:22:23.887Z,12.56
2022-12-25T04:25:10.277Z,12.57
2022-12-25T04:27:56.001Z,12.56
2022-12-25T04:30:41.726Z,12.58
2022-12-25T04:33:27.579Z,12.56
2022-12-25T04:36:09.787Z,12.58
2022-12-25T04:38:38.648Z,12.62
2022-12-25T04:41:06.665Z,12.61
2022-12-25T04:43:33.888Z,12.60
2022-12-25T04:46:02.486Z,12.63
2022-12-25T04:48:32.391Z,12.64
2022-12-25T04:51:09.240Z,12.64
2022-12-25T04:53:36.299Z,12.63
2022-12-25T04:56:03.511Z,12.60
2022-12-25T04:58:31.919Z,12.54
2022-12-25T05:01:03.821Z,12.48
2022-12-25T05:03:31.521Z,12.42
2022-12-25T05:05:59.044Z,12.39
2022-12-25T05:08:26.884Z,12.35
2022-12-25T05:10:53.817Z,12.36
2022-12-25T05:13:20.973Z,12.39
2022-12-25T05:15:48.129Z,12.42
2022-12-25T05:18:15.547Z,12.49
2022-12-25T05:20:42.626Z,12.46
2022-12-25T05:23:12.282Z,12.47
2022-12-25T05:25:40.940Z,12.43
2022-12-25T05:28:08.385Z,12.38
2022-12-25T05:30:35.383Z,12.35
2022-12-25T05:33:03.374Z,12.30
2022-12-25T05:35:30.430Z,12.30
2022-12-25T05:37:57.571Z,12.30
2022-12-25T05:40:24.680Z,12.27
2022-12-25T05:42:51.783Z,12.26
2022-12-25T05:45:18.781Z,12.25
2022-12-25T05:47:45.761Z,12.23
2022-12-25T05:50:12.793Z,12.28
2022-12-25T05:52:39.948Z,12.29
2022-12-25T05:55:07.244Z,12.31
2022-12-25T05:57:34.376Z,12.31
2022-12-25T06:00:01.340Z,12.30
2022-12-25T06:02:28.411Z,12.27
2022-12-25T06:04:55.473Z,12.26
2022-12-25T06:07:22.562Z,12.24
2022-12-25T06:09:49.533Z,12.22
2022-12-25T06:12:16.603Z,12.19
2022-12-25T06:14:43.779Z,12.23
2022-12-25T06:17:10.938Z,12.24
2022-12-25T06:19:38.246Z,12.25
2022-12-25T06:22:05.263Z,12.28
2022-12-25T06:24:32.505Z,12.36
2022-12-25T06:26:59.482Z,12.43
2022-12-25T06:29:26.620Z,12.56
2022-12-25T06:31:57.533Z,12.67
2022-12-25T06:34:24.843Z,12.82
2022-12-25T06:36:51.915Z,12.93
2022-12-25T06:39:19.516Z,13.09
2022-12-25T06:41:46.479Z,13.21
2022-12-25T06:44:13.935Z,13.29
2022-12-25T06:46:40.875Z,13.40
2022-12-25T06:49:08.063Z,13.47
2022-12-25T06:51:35.060Z,13.56
2022-12-25T06:54:05.397Z,13.64
2022-12-25T06:56:35.568Z,13.74
2022-12-25T06:59:05.987Z,13.78
2022-12-25T07:01:48.581Z,13.88
2022-12-25T07:04:32.210Z,13.93
2022-12-25T07:07:04.413Z,14.02
2022-12-25T07:09:35.835Z,14.11
2022-12-25T07:12:17.195Z,14.21
2022-12-25T07:14:45.509Z,14.23
2022-12-25T07:17:12.469Z,14.30
2022-12-25T07:19:44.755Z,14.34
2022-12-25T07:22:13.027Z,14.44
2022-12-25T07:24:41.628Z,14.44
2022-12-25T07:27:08.758Z,14.53
2022-12-25T07:29:35.749Z,14.60
2022-12-25T07:32:02.948Z,14.68
2022-12-25T07:34:29.975Z,14.78
2022-12-25T07:36:57.146Z,14.90
2022-12-25T07:39:24.105Z,14.89
2022-12-25T07:41:51.607Z,14.89
2022-12-25T07:44:18.923Z,14.98
2022-12-25T07:46:46.321Z,15.22
2022-12-25T07:49:13.395Z,15.30
2022-12-25T07:51:42.224Z,15.55
2022-12-25T07:54:09.283Z,15.54
2022-12-25T07:56:36.638Z,15.35
2022-12-25T07:59:03.681Z,15.29
2022-12-25T08:01:31.049Z,15.31
2022-12-25T08:04:01.214Z,15.32
2022-12-25T08:06:33.906Z,15.40
2022-12-25T08:09:07.574Z,15.46
2022-12-25T08:11:34.972Z,15.53
2022-12-25T08:14:02.224Z,15.55
2022-12-25T08:16:29.386Z,15.61
2022-12-25T08:18:56.403Z,15.65
2022-12-25T08:21:23.531Z,15.70
2022-12-25T08:23:50.577Z,15.80
2022-12-25T08:26:20.933Z,15.93
2022-12-25T08:28:49.604Z,16.04
2022-12-25T08:31:21.411Z,16.14
2022-12-25T08:33:49.977Z,16.26
2022-12-25T08:36:18.807Z,16.45
2022-12-25T08:38:47.188Z,16.59
2022-12-25T08:41:15.251Z,16.71
2022-12-25T08:43:42.917Z,16.84
2022-12-25T08:46:10.304Z,16.95
2022-12-25T08:48:37.663Z,17.02
2022-12-25T08:51:05.377Z,17.14
2022-12-25T08:53:32.349Z,17.28
2022-12-25T08:56:01.392Z,17.42
2022-12-25T08:58:28.838Z,17.47
2022-12-25T09:00:56.391Z,17.45
2022-12-25T09:03:24.278Z,17.38
2022-12-25T09:05:52.417Z,17.23
2022-12-25T09:08:20.345Z,17.17
2022-12-25T09:10:48.161Z,17.11
2022-12-25T09:13:15.255Z,17.14
2022-12-25T09:15:42.403Z,17.23
2022-12-25T09:18:09.534Z,17.37
2022-12-25T09:20:36.507Z,17.48
2022-12-25T09:23:07.212Z,17.56
2022-12-25T09:25:37.024Z,17.69
2022-12-25T09:28:04.360Z,17.90
2022-12-25T09:30:31.517Z,17.92
2022-12-25T09:32:58.672Z,18.10
2022-12-25T09:35:25.877Z,18.34
2022-12-25T09:37:54.775Z,18.45
2022-12-25T09:40:30.392Z,18.59
2022-12-25T09:42:59.007Z,18.84
2022-12-25T09:45:33.090Z,18.95
2022-12-25T09:48:00.285Z,18.99
2022-12-25T09:50:50.471Z,19.18
2022-12-25T09:53:27.099Z,19.33
2022-12-25T09:56:16.806Z,19.52
2022-12-25T09:58:44.326Z,19.45
2022-12-25T10:01:17.494Z,19.55
2022-12-25T10:03:53.641Z,19.70
2022-12-25T10:06:32.737Z,19.78
2022-12-25T10:09:19.512Z,19.81
2022-12-25T10:12:24.089Z,19.79
2022-12-25T10:15:10.622Z,19.99
2022-12-25T10:17:52.832Z,20.09
2022-12-25T10:20:34.727Z,20.13
2022-12-25T10:23:04.587Z,20.29
2022-12-25T10:25:32.840Z,20.43
2022-12-25T10:28:11.976Z,20.29
2022-12-25T10:30:42.644Z,20.26
2022-12-25T10:33:16.933Z,20.39
2022-12-25T10:35:45.618Z,20.29
2022-12-25T10:38:18.871Z,20.31
2022-12-25T10:41:10.040Z,20.46
2022-12-25T10:44:06.188Z,20.61
2022-12-25T10:46:33.454Z,20.72
2022-12-25T10:49:03.002Z,20.50
2022-12-25T10:51:35.742Z,20.48
2022-12-25T10:54:23.953Z,20.34
2022-12-25T10:57:02.292Z,20.13
2022-12-25T10:59:34.731Z,19.95
2022-12-25T11:02:20.636Z,19.39
2022-12-25T11:04:48.563Z,19.47
2022-12-25T11:07:26.400Z,19.73
2022-12-25T11:10:20.993Z,19.88
2022-12-25T11:12:51.075Z,19.64
2022-12-25T11:15:39.318Z,19.89
2022-12-25T11:18:29.676Z,19.57
2022-12-25T11:21:16.536Z,19.43
2022-12-25T11:23:49.832Z,19.29
2022-12-25T11:26:19.082Z,19.30
2022-12-25T11:28:46.700Z,19.43
2022-12-25T11:31:16.934Z,19.55
2022-12-25T11:33:55.144Z,19.54
2022-12-25T11:36:48.777Z,19.58
2022-12-25T11:39:28.438Z,19.61
2022-12-25T11:42:05.644Z,19.55
2022-12-25T11:45:00.881Z,19.59
2022-12-25T11:47:45.117Z,19.57
2022-12-25T11:50:20.433Z,19.48
2022-12-25T11:52:48.799Z,19.32
2022-12-25T11:55:22.597Z,19.32
2022-12-25T11:57:56.871Z,19.13
2022-12-25T12:00:24.294Z,19.04
2022-12-25T12:03:03.461Z,19.02
2022-12-25T12:05:43.013Z,19.00
2022-12-25T12:08:11.473Z,18.98
2022-12-25T12:11:01.099Z,19.06
2022-12-25T12:13:50.460Z,19.16
2022-12-25T12:16:17.660Z,19.20
2022-12-25T12:18:50.418Z,19.16
2022-12-25T12:21:17.961Z,19.07
2022-12-25T12:24:09.580Z,18.98
2022-12-25T12:26:41.123Z,18.84
2022-12-25T12:29:29.496Z,18.72
2022-12-25T12:32:02.145Z,18.80
2022-12-25T12:34:50.706Z,18.90
2022-12-25T12:37:25.191Z,18.91
2022-12-25T12:39:56.320Z,18.94
2022-12-25T12:42:31.639Z,19.02
2022-12-25T12:45:16.105Z,18.87
2022-12-25T12:47:48.996Z,18.73
2022-12-25T12:50:38.289Z,18.72
2022-12-25T12:53:23.755Z,18.80
2022-12-25T12:55:52.473Z,18.60
2022-12-25T12:58:35.337Z,18.77
2022-12-25T13:02:05.261Z,18.71
2022-12-25T13:04:52.229Z,18.50
2022-12-25T13:07:45.571Z,18.55
2022-12-25T13:10:12.513Z,18.62
2022-12-25T13:12:39.740Z,18.86
2022-12-25T13:15:14.640Z,18.76
2022-12-25T13:17:46.941Z,18.74
2022-12-25T13:20:38.787Z,18.91
2022-12-25T13:23:28.916Z,19.10
2022-12-25T13:26:17.102Z,18.96
2022-12-25T13:28:47.094Z,19.06
2022-12-25T13:31:14.225Z,19.04
2022-12-25T13:33:46.323Z,19.16
2022-12-25T13:36:14.662Z,19.07
2022-12-25T13:38:50.823Z,19.08
2022-12-25T13:41:43.681Z,19.14
2022-12-25T13:44:29.039Z,19.15
2022-12-25T13:46:56.162Z,19.10
2022-12-25T13:49:24.639Z,19.01
2022-12-25T13:51:52.041Z,19.01
2022-12-25T13:54:19.484Z,19.11
2022-12-25T13:56:55.624Z,19.17
2022-12-25T13:59:25.550Z,19.24
2022-12-25T14:01:54.217Z,19.11
2022-12-25T14:04:24.445Z,19.13
2022-12-25T14:06:52.748Z,19.10
2022-12-25T14:09:20.378Z,19.20
2022-12-25T14:11:52.422Z,19.33
2022-12-25T14:14:22.524Z,19.29
2022-12-25T14:16:53.535Z,19.32
2022-12-25T14:19:27.967Z,19.29
2022-12-25T14:22:18.588Z,19.30
2022-12-25T14:24:45.825Z,19.16
2022-12-25T14:27:23.338Z,19.02
2022-12-25T14:29:54.350Z,18.88
2022-12-25T14:32:24.370Z,18.88
2022-12-25T14:34:55.818Z,18.81
2022-12-25T14:37:32.690Z,18.74
2022-12-25T14:40:04.342Z,18.73
2022-12-25T14:42:35.210Z,18.64
2022-12-25T14:45:21.976Z,18.58
2022-12-25T14:47:54.086Z,18.58
2022-12-25T14:50:32.812Z,18.50
2022-12-25T14:53:01.641Z,18.49
2022-12-25T14:55:30.715Z,18.39
2022-12-25T14:58:06.476Z,18.32
2022-12-25T15:00:39.142Z,18.26
2022-12-25T15:03:25.304Z,18.23
2022-12-25T15:06:05.243Z,18.16
2022-12-25T15:08:35.060Z,18.06
2022-12-25T15:11:03.594Z,17.96
2022-12-25T15:13:31.898Z,17.86
2022-12-25T15:16:04.811Z,17.77
2022-12-25T15:18:41.743Z,17.72
2022-12-25T15:21:18.001Z,17.62
2022-12-25T15:23:45.319Z,17.52
2022-12-25T15:26:14.001Z,17.44
2022-12-25T15:28:41.179Z,17.37
2022-12-25T15:31:29.974Z,17.26
2022-12-25T15:34:00.286Z,17.22
2022-12-25T15:36:28.567Z,17.18
2022-12-25T15:38:55.990Z,17.10
2022-12-25T15:41:47.807Z,17.03
2022-12-25T15:44:15.511Z,16.97
2022-12-25T15:46:43.409Z,16.93
2022-12-25T15:49:11.070Z,16.85
2022-12-25T15:51:38.628Z,16.82
2022-12-25T15:54:05.680Z,16.77
2022-12-25T15:56:44.979Z,16.69
2022-12-25T15:59:13.378Z,16.64
2022-12-25T16:01:44.908Z,16.59
2022-12-25T16:04:12.151Z,16.54
2022-12-25T16:06:39.276Z,16.51
2022-12-25T16:09:06.433Z,16.50
2022-12-25T16:11:33.375Z,16.47
2022-12-25T16:14:00.502Z,16.43
2022-12-25T16:16:27.566Z,16.41
2022-12-25T16:18:54.558Z,16.37
2022-12-25T16:21:22.517Z,16.36
2022-12-25T16:23:49.667Z,16.34
2022-12-25T16:26:16.933Z,16.32
2022-12-25T16:28:43.919Z,16.34
2022-12-25T16:31:11.651Z,16.32
2022-12-25T16:33:38.780Z,16.34
2022-12-25T16:36:06.093Z,16.36
2022-12-25T16:38:34.258Z,16.35
2022-12-25T16:41:02.186Z,16.33
2022-12-25T16:43:29.265Z,16.29
2022-12-25T16:45:57.525Z,16.29
2022-12-25T16:48:24.852Z,16.29
2022-12-25T16:50:51.867Z,16.30
2022-12-25T16:53:21.848Z,16.27
2022-12-25T16:55:49.292Z,16.23
2022-12-25T16:58:16.279Z,16.17
2022-12-25T17:00:49.090Z,16.10
2022-12-25T17:03:16.663Z,16.03
2022-12-25T17:05:43.858Z,15.96
2022-12-25T17:08:10.840Z,15.94
2022-12-25T17:10:39.366Z,15.89
2022-12-25T17:13:06.529Z,15.87
2022-12-25T17:15:33.685Z,15.85
2022-12-25T17:18:00.683Z,15.81
2022-12-25T17:20:28.456Z,15.81
2022-12-25T17:22:58.915Z,15.76
2022-12-25T17:25:26.905Z,15.74
2022-12-25T17:27:53.866Z,15.77
2022-12-25T17:30:22.491Z,15.74
2022-12-25T17:32:51.121Z,15.77
2022-12-25T17:35:20.819Z,15.71
2022-12-25T17:37:47.847Z,15.65
2022-12-25T17:40:14.935Z,15.64
2022-12-25T17:42:42.061Z,15.59
2022-12-25T17:45:09.590Z,15.57
2022-12-25T17:47:36.594Z,15.55
2022-12-25T17:50:04.030Z,15.56
2022-12-25T17:52:31.009Z,15.61
2022-12-25T17:54:57.975Z,15.58
2022-12-25T17:57:25.177Z,15.56
2022-12-25T17:59:52.131Z,15.54
2022-12-25T18:02:19.299Z,15.51
2022-12-25T18:04:48.292Z,15.45
2022-12-25T18:07:16.030Z,15.42
2022-12-25T18:09:43.214Z,15.42
2022-12-25T18:12:10.198Z,15.38
2022-12-25T18:14:38.343Z,15.33
2022-12-25T18:17:06.163Z,15.28
2022-12-25T18:19:34.397Z,15.23
2022-12-25T18:22:01.719Z,15.20
2022-12-25T18:24:28.873Z,15.20
2022-12-25T18:26:56.068Z,15.17
2022-12-25T18:29:23.222Z,15.16
2022-12-25T18:31:50.487Z,15.16
2022-12-25T18:34:18.547Z,15.12
2022-12-25T18:36:45.751Z,15.08
2022-12-25T18:39:13.545Z,15.04
2022-12-25T18:42:00.558Z,15.01
2022-12-25T18:44:28.654Z,15.00
2022-12-25T18:46:55.996Z,15.01
2022-12-25T18:49:23.306Z,14.98
2022-12-25T18:51:50.680Z,14.94
2022-12-25T18:54:17.625Z,14.87
2022-12-25T18:56:48.406Z,14.83
2022-12-25T18:59:19.218Z,14.77
2022-12-25T19:01:46.484Z,14.80
2022-12-25T19:04:16.669Z,14.79
2022-12-25T19:06:43.966Z,14.75
2022-12-25T19:09:11.226Z,14.73
2022-12-25T19:11:45.982Z,14.72
2022-12-25T19:14:14.359Z,14.70
2022-12-25T19:16:41.531Z,14.67
2022-12-25T19:19:08.646Z,14.63
2022-12-25T19:21:35.850Z,14.58
2022-12-25T19:24:02.803Z,14.55
2022-12-25T19:26:30.665Z,14.48
2022-12-25T19:28:57.641Z,14.47
2022-12-25T19:31:25.932Z,14.41
2022-12-25T19:33:53.059Z,14.39
2022-12-25T19:36:21.894Z,14.36
2022-12-25T19:38:48.948Z,14.39
2022-12-25T19:41:18.835Z,14.44
2022-12-25T19:43:49.025Z,14.50
2022-12-25T19:46:26.031Z,14.49
2022-12-25T19:48:54.851Z,14.51
2022-12-25T19:51:28.076Z,14.50
2022-12-25T19:53:56.583Z,14.47
2022-12-25T19:56:30.528Z,14.47
2022-12-25T19:58:58.709Z,14.46
2022-12-25T20:01:28.187Z,14.39
2022-12-25T20:03:56.774Z,14.31
2022-12-25T20:06:33.761Z,14.29
2022-12-25T20:09:20.611Z,14.25
2022-12-25T20:11:48.346Z,14.22
2022-12-25T20:14:16.712Z,14.23
2022-12-25T20:16:44.616Z,14.21
2022-12-25T20:19:13.298Z,14.16
2022-12-25T20:21:40.645Z,14.15
2022-12-25T20:24:13.082Z,14.14
2022-12-25T20:26:42.873Z,14.09
2022-12-25T20:29:11.606Z,14.05
2022-12-25T20:31:38.639Z,14.03
2022-12-25T20:34:11.014Z,14.07
2022-12-25T20:36:38.493Z,14.06
2022-12-25T20:39:11.346Z,14.05
2022-12-25T20:41:40.662Z,14.04
2022-12-25T20:44:10.377Z,14.01
2022-12-25T20:46:38.006Z,13.95
2022-12-25T20:49:06.374Z,13.91
2022-12-25T20:51:33.622Z,13.87
2022-12-25T20:54:01.385Z,13.82
2022-12-25T20:56:30.209Z,13.78
2022-12-25T20:58:59.224Z,13.77
2022-12-25T21:01:28.591Z,13.80
2022-12-25T21:03:56.308Z,13.80
2022-12-25T21:06:24.008Z,13.81
2022-12-25T21:08:51.340Z,13.79
2022-12-25T21:11:18.572Z,13.75
2022-12-25T21:13:47.100Z,13.69
2022-12-25T21:16:18.871Z,13.65
2022-12-25T21:18:46.485Z,13.62
2022-12-25T21:21:13.998Z,13.60
2022-12-25T21:23:41.411Z,13.55
2022-12-25T21:26:22.137Z,13.52
2022-12-25T21:28:51.444Z,13.51
2022-12-25T21:31:18.942Z,13.49
2022-12-25T21:33:52.860Z,13.47
2022-12-25T21:36:32.019Z,13.42
2022-12-25T21:39:05.289Z,13.38
2022-12-25T21:41:33.843Z,13.36
2022-12-25T21:44:01.434Z,13.35
2022-12-25T21:46:29.514Z,13.32
2022-12-25T21:48:57.119Z,13.33
2022-12-25T21:51:49.483Z,13.34
2022-12-25T21:54:18.647Z,13.34
2022-12-25T21:56:47.388Z,13.37
2022-12-25T21:59:18.184Z,13.37
2022-12-25T22:01:46.785Z,13.36
2022-12-25T22:04:15.854Z,13.33
2022-12-25T22:07:02.118Z,13.31
2022-12-25T22:09:29.333Z,13.30
2022-12-25T22:12:16.819Z,13.27
2022-12-25T22:14:54.249Z,13.21
2022-12-25T22:17:44.259Z,13.18
2022-12-25T22:20:18.258Z,13.15
2022-12-25T22:22:46.088Z,13.10
2022-12-25T22:25:14.075Z,13.09
2022-12-25T22:27:43.261Z,13.06
2022-12-25T22:30:17.339Z,13.03
2022-12-25T22:32:46.735Z,13.01
2022-12-25T22:35:16.733Z,13.02
2022-12-25T22:37:44.202Z,13.00
2022-12-25T22:40:14.642Z,12.97
2022-12-25T22:42:42.344Z,12.95
2022-12-25T22:45:09.929Z,12.94
2022-12-25T22:47:37.151Z,12.93
2022-12-25T22:50:05.206Z,12.90
2022-12-25T22:52:32.333Z,12.88
2022-12-25T22:54:59.302Z,12.85
2022-12-25T22:57:26.507Z,12.83
2022-12-25T22:59:54.513Z,12.83
2022-12-25T23:02:22.020Z,12.91
2022-12-25T23:04:49.572Z,12.97
2022-12-25T23:07:17.081Z,12.98
2022-12-25T23:09:44.670Z,12.96
2022-12-25T23:12:31.991Z,12.93
2022-12-25T23:14:59.280Z,12.87
2022-12-25T23:17:45.020Z,12.85
2022-12-25T23:20:32.982Z,12.83
2022-12-25T23:23:18.972Z,12.80
2022-12-25T23:26:06.003Z,12.78
2022-12-25T23:28:51.780Z,12.75
2022-12-25T23:31:20.806Z,12.79
2022-12-25T23:33:47.787Z,12.79
2022-12-25T23:36:14.811Z,12.75
2022-12-25T23:38:41.873Z,12.75
2022-12-25T23:41:08.842Z,12.81
2022-12-25T23:43:37.014Z,12.78
2022-12-25T23:46:04.245Z,12.78
2022-12-25T23:48:31.340Z,12.78
2022-12-25T23:51:03.524Z,12.78
2022-12-25T23:53:31.196Z,12.76
2022-12-25T23:55:58.797Z,12.73
2022-12-25T23:58:27.003Z,12.75
